Time;durP1;ratioP1;P1;durP2;ratioP2;P2;SDS_P1;SDS_P2;PMS_P1;PMS_P2;Temp;Humidity;BMP_temperature;BMP_pressure;BME280_temperature;BME280_humidity;BME280_pressure;Samples;Min_cycle;Max_cycle;Signal;HPM_P1;HPM_P2
2023/05/22 00:00:28;;;;;;;12.75;9.60;;;;;;;;;;5013367;28;20106;-67
2023/05/22 00:02:53;;;;;;;12.77;9.65;;;;;;;;;;5035387;28;20045;-66
2023/05/22 00:05:19;;;;;;;13.02;9.63;;;;;;;;;;5016224;28;20037;-68
2023/05/22 00:07:45;;;;;;;15.02;8.82;;;;;;;;;;5007491;28;20383;-66
2023/05/22 00:10:12;;;;;;;15.25;9.60;;;;;;;;;;5009846;28;20138;-67
2023/05/22 00:12:37;;;;;;;12.05;9.60;;;;;;;;;;5014435;28;20489;-67
2023/05/22 00:15:03;;;;;;;14.60;9.65;;;;;;;;;;5010684;28;20049;-66
2023/05/22 00:17:29;;;;;;;13.43;9.27;;;;;;;;;;5018168;28;20046;-65
2023/05/22 00:19:55;;;;;;;11.18;9.45;;;;;;;;;;5018983;28;20041;-67
2023/05/22 00:22:21;;;;;;;15.52;9.55;;;;;;;;;;5017384;28;20049;-66
2023/05/22 00:24:46;;;;;;;13.18;10.07;;;;;;;;;;5015760;28;20053;-65
2023/05/22 00:27:12;;;;;;;11.82;9.60;;;;;;;;;;5017771;28;20046;-66
2023/05/22 00:29:37;;;;;;;12.05;9.45;;;;;;;;;;5019772;28;20065;-66
2023/05/22 00:32:04;;;;;;;11.45;8.45;;;;;;;;;;5008212;28;20068;-66
2023/05/22 00:34:30;;;;;;;13.38;8.73;;;;;;;;;;5019778;28;20045;-67
2023/05/22 00:36:55;;;;;;;11.88;8.75;;;;;;;;;;5035686;28;20057;-69
2023/05/22 00:39:21;;;;;;;13.70;9.18;;;;;;;;;;5008123;28;20042;-66
2023/05/22 00:41:46;;;;;;;11.82;8.82;;;;;;;;;;5011072;28;20053;-67
2023/05/22 00:44:12;;;;;;;14.23;9.05;;;;;;;;;;5017841;28;20045;-66
2023/05/22 00:46:37;;;;;;;13.43;9.13;;;;;;;;;;5019433;28;20053;-66
2023/05/22 00:49:03;;;;;;;11.00;8.80;;;;;;;;;;5017905;28;20514;-66
2023/05/22 00:51:29;;;;;;;13.02;9.00;;;;;;;;;;5007305;28;20140;-67
2023/05/22 00:53:55;;;;;;;14.10;9.25;;;;;;;;;;5033907;28;20179;-69
2023/05/22 00:56:21;;;;;;;14.63;9.05;;;;;;;;;;5018064;28;20140;-66
2023/05/22 00:58:47;;;;;;;11.85;9.15;;;;;;;;;;5035913;28;20114;-65
2023/05/22 01:01:14;;;;;;;10.60;9.38;;;;;;;;;;5018956;28;20041;-66
2023/05/22 01:03:43;;;;;;;13.43;9.85;;;;;;;;;;5036531;28;20065;-67
2023/05/22 01:06:20;;;;;;;13.25;10.23;;;;;;;;;;5022543;28;20060;-67
2023/05/22 01:08:46;;;;;;;18.00;11.40;;;;;;;;;;5019860;28;20046;-67
2023/05/22 01:11:16;;;;;;;15.57;11.20;;;;;;;;;;5037668;28;20064;-67
2023/05/22 01:13:49;;;;;;;14.25;10.73;;;;;;;;;;5023187;28;20148;-66
2023/05/22 01:16:29;;;;;;;14.45;9.73;;;;;;;;;;5016960;28;20049;-68
2023/05/22 01:19:11;;;;;;;16.52;9.55;;;;;;;;;;5024124;28;20482;-67
2023/05/22 01:21:46;;;;;;;15.75;9.93;;;;;;;;;;5029301;28;20053;-65
2023/05/22 01:24:26;;;;;;;14.63;9.52;;;;;;;;;;5013811;28;20065;-65
2023/05/22 01:26:55;;;;;;;14.05;9.02;;;;;;;;;;5009844;28;20069;-65
2023/05/22 01:29:33;;;;;;;18.52;10.15;;;;;;;;;;5010866;28;20520;-65
2023/05/22 01:32:01;;;;;;;14.38;10.00;;;;;;;;;;5012152;28;20045;-66
2023/05/22 01:34:27;;;;;;;14.50;9.65;;;;;;;;;;5009830;28;20037;-64
2023/05/22 01:36:55;;;;;;;14.00;9.02;;;;;;;;;;5033182;28;20081;-65
2023/05/22 01:39:23;;;;;;;14.35;9.52;;;;;;;;;;5018119;28;20119;-65
2023/05/22 01:41:49;;;;;;;13.15;9.13;;;;;;;;;;5037589;28;20891;-69
2023/05/22 01:44:14;;;;;;;13.70;9.98;;;;;;;;;;5020107;28;20671;-65
2023/05/22 01:46:40;;;;;;;12.63;9.80;;;;;;;;;;5016434;28;20175;-68
2023/05/22 01:49:06;;;;;;;15.88;10.82;;;;;;;;;;5013111;28;20042;-67
2023/05/22 01:51:47;;;;;;;13.88;10.77;;;;;;;;;;5004062;28;20041;-66
2023/05/22 01:54:34;;;;;;;17.42;10.55;;;;;;;;;;5021047;28;20045;-65
2023/05/22 01:57:08;;;;;;;12.65;9.68;;;;;;;;;;5012835;28;20089;-65
2023/05/22 01:59:51;;;;;;;18.98;10.52;;;;;;;;;;5037578;28;20045;-64
2023/05/22 02:02:18;;;;;;;12.70;9.40;;;;;;;;;;5021783;28;21157;-67
2023/05/22 02:04:47;;;;;;;15.88;10.82;;;;;;;;;;5021541;28;20124;-67
2023/05/22 02:07:14;;;;;;;13.60;11.10;;;;;;;;;;5015537;28;20049;-66
2023/05/22 02:09:42;;;;;;;18.45;10.23;;;;;;;;;;4992021;28;20061;-66
2023/05/22 02:12:11;;;;;;;15.60;10.43;;;;;;;;;;5037053;28;20775;-69
2023/05/22 02:14:37;;;;;;;12.60;10.30;;;;;;;;;;5020587;28;20064;-66
2023/05/22 02:17:04;;;;;;;17.17;10.57;;;;;;;;;;5012021;28;20446;-67
2023/05/22 02:19:29;;;;;;;18.05;10.68;;;;;;;;;;5018303;28;20596;-66
2023/05/22 02:21:55;;;;;;;13.70;10.93;;;;;;;;;;5010724;28;20053;-67
2023/05/22 02:24:22;;;;;;;19.35;11.25;;;;;;;;;;5036645;28;20042;-69
2023/05/22 02:26:48;;;;;;;15.32;11.35;;;;;;;;;;5036222;28;20049;-67
2023/05/22 02:29:13;;;;;;;16.33;10.65;;;;;;;;;;5036254;28;20065;-68
2023/05/22 02:31:38;;;;;;;13.50;10.95;;;;;;;;;;5020610;28;20548;-66
2023/05/22 02:34:05;;;;;;;15.32;10.45;;;;;;;;;;5036144;28;20064;-66
2023/05/22 02:36:31;;;;;;;15.35;10.75;;;;;;;;;;5036842;28;20040;-66
2023/05/22 02:39:00;;;;;;;15.23;11.93;;;;;;;;;;5039436;28;20044;-67
2023/05/22 02:41:25;;;;;;;14.07;11.25;;;;;;;;;;5021362;28;20053;-67
2023/05/22 02:43:51;;;;;;;16.67;10.60;;;;;;;;;;5036254;28;20045;-67
2023/05/22 02:46:16;;;;;;;17.92;11.93;;;;;;;;;;5035292;28;20179;-69
2023/05/22 02:48:42;;;;;;;19.30;11.23;;;;;;;;;;5035396;28;20052;-69
2023/05/22 02:51:07;;;;;;;15.77;10.45;;;;;;;;;;5035446;28;20084;-67
2023/05/22 02:53:34;;;;;;;14.35;11.20;;;;;;;;;;5020941;28;20045;-67
2023/05/22 02:55:59;;;;;;;13.98;10.95;;;;;;;;;;5035680;28;20070;-70
2023/05/22 02:58:25;;;;;;;13.35;11.02;;;;;;;;;;5021227;28;20134;-67
2023/05/22 03:00:52;;;;;;;12.63;10.55;;;;;;;;;;5020051;28;20041;-71
2023/05/22 03:03:18;;;;;;;15.30;10.82;;;;;;;;;;5035686;28;20064;-66
2023/05/22 03:05:44;;;;;;;15.05;11.07;;;;;;;;;;5020873;28;20049;-68
2023/05/22 03:08:10;;;;;;;13.57;10.43;;;;;;;;;;5019254;28;20387;-68
2023/05/22 03:10:37;;;;;;;16.77;10.63;;;;;;;;;;5031826;28;20545;-67
2023/05/22 03:13:02;;;;;;;18.73;11.20;;;;;;;;;;5018541;28;20046;-69
2023/05/22 03:15:28;;;;;;;16.02;9.73;;;;;;;;;;5015055;28;20041;-66
2023/05/22 03:17:58;;;;;;;13.65;10.77;;;;;;;;;;5035821;28;20669;-66
2023/05/22 03:20:23;;;;;;;15.10;10.70;;;;;;;;;;5015794;28;20049;-71
2023/05/22 03:22:49;;;;;;;16.55;11.48;;;;;;;;;;5015728;28;20596;-66
2023/05/22 03:25:14;;;;;;;15.40;11.60;;;;;;;;;;5019747;28;20115;-68
2023/05/22 03:27:40;;;;;;;17.52;12.13;;;;;;;;;;5019156;28;20045;-66
2023/05/22 03:30:07;;;;;;;13.55;10.57;;;;;;;;;;5035223;28;20045;-68
2023/05/22 03:32:37;;;;;;;16.40;12.02;;;;;;;;;;5034400;28;20067;-66
2023/05/22 03:35:04;;;;;;;16.63;11.10;;;;;;;;;;4986170;28;20046;-68
2023/05/22 03:37:30;;;;;;;16.10;11.57;;;;;;;;;;5035568;28;20072;-65
2023/05/22 03:39:55;;;;;;;14.20;10.32;;;;;;;;;;5035782;28;21031;-69
2023/05/22 03:42:25;;;;;;;15.80;11.82;;;;;;;;;;5018385;28;20398;-67
2023/05/22 03:44:51;;;;;;;16.10;12.48;;;;;;;;;;5034344;28;20045;-67
2023/05/22 03:47:17;;;;;;;16.73;12.98;;;;;;;;;;5033774;28;20049;-71
2023/05/22 03:49:42;;;;;;;19.48;12.27;;;;;;;;;;5013141;28;20067;-65
2023/05/22 03:52:09;;;;;;;15.15;11.68;;;;;;;;;;5032087;28;20063;-67
2023/05/22 03:54:36;;;;;;;15.25;12.25;;;;;;;;;;5010220;28;20137;-66
2023/05/22 03:57:02;;;;;;;16.42;11.45;;;;;;;;;;5026722;28;20694;-66
2023/05/22 03:59:27;;;;;;;19.75;12.05;;;;;;;;;;5020208;28;20994;-67
2023/05/22 04:01:56;;;;;;;19.95;12.63;;;;;;;;;;5033473;28;20469;-69
2023/05/22 04:04:25;;;;;;;16.90;12.65;;;;;;;;;;5014982;28;20060;-71
2023/05/22 04:06:51;;;;;;;19.88;12.05;;;;;;;;;;5010649;28;20077;-68
2023/05/22 04:09:17;;;;;;;19.58;11.15;;;;;;;;;;5009217;28;20841;-68
2023/05/22 04:11:43;;;;;;;17.58;11.82;;;;;;;;;;5033398;28;20053;-69
2023/05/22 04:14:08;;;;;;;17.02;12.18;;;;;;;;;;5011180;28;20053;-67
2023/05/22 04:16:34;;;;;;;19.17;12.52;;;;;;;;;;5034070;28;20619;-67
2023/05/22 04:19:02;;;;;;;18.30;13.43;;;;;;;;;;5008669;28;20556;-67
2023/05/22 04:21:32;;;;;;;17.60;13.02;;;;;;;;;;5027153;28;20049;-69
2023/05/22 04:23:58;;;;;;;19.35;13.95;;;;;;;;;;5031477;28;20128;-68
2023/05/22 04:26:24;;;;;;;16.80;13.23;;;;;;;;;;5010316;28;20114;-66
2023/05/22 04:28:50;;;;;;;17.60;13.50;;;;;;;;;;5033719;28;20045;-68
2023/05/22 04:31:15;;;;;;;16.13;12.52;;;;;;;;;;5012041;28;20064;-71
2023/05/22 04:33:41;;;;;;;21.13;12.90;;;;;;;;;;5017666;28;20053;-67
2023/05/22 04:36:09;;;;;;;18.50;12.65;;;;;;;;;;5022916;28;20096;-67
2023/05/22 04:38:36;;;;;;;17.95;12.73;;;;;;;;;;5017730;28;20065;-66
2023/05/22 04:41:02;;;;;;;17.83;12.18;;;;;;;;;;5023636;28;20505;-67
2023/05/22 04:43:28;;;;;;;17.38;11.48;;;;;;;;;;5018073;28;20144;-66
2023/05/22 04:45:57;;;;;;;14.82;11.32;;;;;;;;;;5021356;28;20045;-69
2023/05/22 04:48:22;;;;;;;17.88;11.30;;;;;;;;;;5018931;28;20045;-67
2023/05/22 04:50:48;;;;;;;14.30;10.52;;;;;;;;;;5040264;28;20115;-71
2023/05/22 04:53:14;;;;;;;14.23;10.25;;;;;;;;;;5036085;28;20037;-67
2023/05/22 04:55:40;;;;;;;15.40;10.55;;;;;;;;;;5012716;28;20645;-68
2023/05/22 04:58:05;;;;;;;16.90;10.25;;;;;;;;;;5038863;28;20045;-67
2023/05/22 05:00:31;;;;;;;13.65;10.27;;;;;;;;;;5012915;28;20060;-68
2023/05/22 05:02:59;;;;;;;13.55;9.88;;;;;;;;;;5014165;28;20042;-68
2023/05/22 05:05:24;;;;;;;14.93;9.48;;;;;;;;;;5035726;28;20046;-68
2023/05/22 05:07:52;;;;;;;13.20;8.45;;;;;;;;;;5037096;28;20132;-67
2023/05/22 05:10:17;;;;;;;13.85;8.73;;;;;;;;;;5020419;28;20623;-69
2023/05/22 05:12:43;;;;;;;16.13;8.65;;;;;;;;;;5034254;28;20046;-69
2023/05/22 05:15:09;;;;;;;14.48;9.00;;;;;;;;;;5036321;28;20099;-72
2023/05/22 05:17:35;;;;;;;13.65;8.85;;;;;;;;;;5020907;28;20045;-70
2023/05/22 05:20:03;;;;;;;13.77;9.23;;;;;;;;;;5034518;28;20391;-72
2023/05/22 05:22:29;;;;;;;12.30;7.70;;;;;;;;;;5015411;28;20145;-72
2023/05/22 05:24:54;;;;;;;13.15;8.02;;;;;;;;;;5035742;28;20132;-69
2023/05/22 05:27:20;;;;;;;11.25;7.40;;;;;;;;;;5022531;28;20057;-68
2023/05/22 05:29:46;;;;;;;10.23;7.85;;;;;;;;;;5018672;28;20057;-69
2023/05/22 05:32:20;;;;;;;12.70;7.55;;;;;;;;;;5033456;28;20123;-73
2023/05/22 05:34:52;;;;;;;11.07;7.07;;;;;;;;;;5016793;28;20135;-70
2023/05/22 05:37:36;;;;;;;9.02;7.13;;;;;;;;;;5032337;28;20053;-70
2023/05/22 05:40:06;;;;;;;8.73;6.93;;;;;;;;;;5017996;28;20354;-70
2023/05/22 05:42:32;;;;;;;11.50;6.93;;;;;;;;;;5030074;28;20052;-72
2023/05/22 05:44:59;;;;;;;8.10;7.30;;;;;;;;;;5012173;28;20045;-70
2023/05/22 05:47:28;;;;;;;10.65;7.25;;;;;;;;;;5028951;28;20091;-72
2023/05/22 05:49:54;;;;;;;14.77;6.90;;;;;;;;;;5020994;28;20108;-71
2023/05/22 05:52:20;;;;;;;12.05;6.97;;;;;;;;;;5019560;28;20393;-70
2023/05/22 05:54:47;;;;;;;9.82;6.95;;;;;;;;;;5013189;28;20061;-69
2023/05/22 05:57:15;;;;;;;10.90;7.43;;;;;;;;;;5012227;28;20045;-71
2023/05/22 05:59:41;;;;;;;9.18;7.50;;;;;;;;;;5020635;28;20041;-69
2023/05/22 06:02:26;;;;;;;9.00;6.72;;;;;;;;;;5020592;28;21011;-71
2023/05/22 06:04:55;;;;;;;11.13;7.28;;;;;;;;;;5020797;28;20052;-70
2023/05/22 06:07:20;;;;;;;10.32;6.90;;;;;;;;;;5034962;28;20100;-69
2023/05/22 06:09:49;;;;;;;9.18;6.28;;;;;;;;;;5036676;28;20124;-69
2023/05/22 06:12:23;;;;;;;9.00;6.30;;;;;;;;;;5036166;28;20619;-70
2023/05/22 06:14:48;;;;;;;6.85;6.10;;;;;;;;;;5020353;28;20053;-72
2023/05/22 06:17:15;;;;;;;13.15;6.38;;;;;;;;;;5034050;28;20061;-69
2023/05/22 06:19:42;;;;;;;9.30;6.15;;;;;;;;;;5020293;28;20553;-70
2023/05/22 06:22:08;;;;;;;10.55;6.95;;;;;;;;;;5020080;28;20049;-72
2023/05/22 06:24:35;;;;;;;8.00;6.35;;;;;;;;;;5036497;28;20041;-69
2023/05/22 06:27:07;;;;;;;9.75;6.20;;;;;;;;;;5017945;28;20136;-68
2023/05/22 06:29:33;;;;;;;8.65;6.50;;;;;;;;;;5034406;28;20073;-70
2023/05/22 06:32:00;;;;;;;7.10;6.00;;;;;;;;;;5036332;28;20041;-69
2023/05/22 06:34:26;;;;;;;9.25;5.93;;;;;;;;;;5019657;28;20045;-69
2023/05/22 06:36:55;;;;;;;15.63;6.25;;;;;;;;;;5036368;28;20506;-68
2023/05/22 06:39:24;;;;;;;9.02;6.43;;;;;;;;;;5033051;28;20380;-69
2023/05/22 06:42:07;;;;;;;7.72;6.07;;;;;;;;;;5017705;28;20566;-68
2023/05/22 06:44:52;;;;;;;10.40;5.68;;;;;;;;;;5014423;28;20084;-69
2023/05/22 06:47:19;;;;;;;7.88;5.60;;;;;;;;;;5033474;28;20080;-68
2023/05/22 06:49:45;;;;;;;8.82;5.70;;;;;;;;;;5032308;28;20081;-68
2023/05/22 06:52:11;;;;;;;8.80;5.75;;;;;;;;;;5043363;28;20092;-70
2023/05/22 06:54:37;;;;;;;6.40;5.47;;;;;;;;;;5037772;28;20056;-67
2023/05/22 06:57:03;;;;;;;9.38;5.82;;;;;;;;;;5034121;28;20485;-68
2023/05/22 06:59:30;;;;;;;8.77;5.43;;;;;;;;;;5013352;28;20053;-70
2023/05/22 07:02:21;;;;;;;9.05;6.05;;;;;;;;;;5014821;28;20153;-72
2023/05/22 07:05:05;;;;;;;9.40;5.90;;;;;;;;;;5011639;28;20103;-69
2023/05/22 07:07:42;;;;;;;6.78;4.97;;;;;;;;;;5035594;28;20045;-71
2023/05/22 07:10:09;;;;;;;6.65;5.55;;;;;;;;;;5018451;28;20049;-69
2023/05/22 07:12:34;;;;;;;7.57;5.65;;;;;;;;;;5019101;28;20144;-68
2023/05/22 07:15:00;;;;;;;7.22;5.72;;;;;;;;;;5032628;28;20928;-68
2023/05/22 07:17:26;;;;;;;11.32;5.82;;;;;;;;;;5017873;28;20048;-69
2023/05/22 07:19:53;;;;;;;6.15;5.55;;;;;;;;;;5035219;28;20052;-68
2023/05/22 07:22:20;;;;;;;6.32;5.38;;;;;;;;;;5030749;28;20042;-69
2023/05/22 07:24:46;;;;;;;9.82;5.93;;;;;;;;;;5014901;28;20048;-70
2023/05/22 07:27:14;;;;;;;5.63;4.85;;;;;;;;;;5017742;28;20415;-70
2023/05/22 07:29:40;;;;;;;9.70;5.80;;;;;;;;;;5031285;28;20064;-71
2023/05/22 07:32:07;;;;;;;8.32;4.80;;;;;;;;;;5035816;28;20502;-70
2023/05/22 07:34:33;;;;;;;7.22;5.72;;;;;;;;;;5034199;28;20046;-69
2023/05/22 07:37:11;;;;;;;7.53;5.28;;;;;;;;;;5018361;28;21016;-71
2023/05/22 07:39:37;;;;;;;6.00;5.40;;;;;;;;;;5015586;28;20046;-70
2023/05/22 07:42:05;;;;;;;9.77;5.30;;;;;;;;;;5015946;28;20051;-70
2023/05/22 07:44:34;;;;;;;8.30;5.25;;;;;;;;;;5026824;28;20080;-71
2023/05/22 07:47:00;;;;;;;9.60;5.78;;;;;;;;;;5017132;28;20053;-70
2023/05/22 07:49:27;;;;;;;8.57;4.97;;;;;;;;;;5018684;28;20498;-70
2023/05/22 07:51:53;;;;;;;5.65;5.05;;;;;;;;;;5020035;28;20045;-69
2023/05/22 07:54:22;;;;;;;5.88;4.43;;;;;;;;;;5034980;28;20045;-70
2023/05/22 07:56:51;;;;;;;6.18;4.20;;;;;;;;;;5032299;28;20077;-71
2023/05/22 07:59:18;;;;;;;4.22;3.83;;;;;;;;;;4986571;28;20045;-71
2023/05/22 08:01:44;;;;;;;4.57;3.85;;;;;;;;;;5019885;28;20049;-69
2023/05/22 08:04:09;;;;;;;6.95;4.63;;;;;;;;;;5013208;28;20046;-70
2023/05/22 08:06:34;;;;;;;4.70;4.28;;;;;;;;;;5017594;28;20060;-71
2023/05/22 08:09:01;;;;;;;8.10;4.18;;;;;;;;;;5008366;28;20050;-70
2023/05/22 08:11:27;;;;;;;7.82;4.00;;;;;;;;;;5010707;28;20220;-69
2023/05/22 08:13:53;;;;;;;4.53;4.07;;;;;;;;;;4999082;28;20084;-71
2023/05/22 08:16:18;;;;;;;5.70;4.53;;;;;;;;;;5010232;28;20481;-69
2023/05/22 08:18:43;;;;;;;4.82;4.03;;;;;;;;;;5002700;28;20092;-71
2023/05/22 08:21:09;;;;;;;8.23;4.80;;;;;;;;;;5016094;28;20053;-72
2023/05/22 08:23:35;;;;;;;7.25;4.25;;;;;;;;;;5013553;28;20053;-70
2023/05/22 08:26:00;;;;;;;5.95;4.28;;;;;;;;;;5015592;28;20053;-73
2023/05/22 08:28:26;;;;;;;6.07;4.47;;;;;;;;;;5013760;28;20041;-71
2023/05/22 08:30:53;;;;;;;7.05;4.05;;;;;;;;;;5011691;28;20102;-70
2023/05/22 08:33:19;;;;;;;4.43;4.00;;;;;;;;;;5017832;28;22170;-73
2023/05/22 08:35:44;;;;;;;5.57;4.65;;;;;;;;;;5017800;28;20151;-72
2023/05/22 08:38:10;;;;;;;6.63;4.22;;;;;;;;;;5008388;28;20104;-70
2023/05/22 08:40:37;;;;;;;5.70;4.35;;;;;;;;;;5015593;28;20054;-71
2023/05/22 08:43:06;;;;;;;4.72;4.32;;;;;;;;;;5009767;28;20037;-72
2023/05/22 08:45:33;;;;;;;10.75;4.95;;;;;;;;;;5034466;28;20091;-70
2023/05/22 08:48:03;;;;;;;5.85;4.28;;;;;;;;;;5017173;28;20973;-71
2023/05/22 08:50:29;;;;;;;7.07;4.50;;;;;;;;;;5016637;28;20056;-70
2023/05/22 08:52:58;;;;;;;4.80;4.30;;;;;;;;;;5018987;28;20057;-72
2023/05/22 08:55:24;;;;;;;6.10;3.90;;;;;;;;;;5018133;28;20085;-70
2023/05/22 08:57:50;;;;;;;4.63;3.85;;;;;;;;;;5012121;28;20133;-70
2023/05/22 09:00:16;;;;;;;5.18;4.13;;;;;;;;;;5007455;28;20766;-71
2023/05/22 09:02:42;;;;;;;7.13;4.78;;;;;;;;;;5009981;28;20415;-71
2023/05/22 09:05:08;;;;;;;6.32;4.28;;;;;;;;;;5015152;28;20045;-69
2023/05/22 09:07:36;;;;;;;8.40;4.68;;;;;;;;;;5017581;28;20045;-70
2023/05/22 09:10:04;;;;;;;4.78;4.38;;;;;;;;;;5015475;28;20144;-69
2023/05/22 09:12:31;;;;;;;5.60;4.32;;;;;;;;;;5014581;28;20108;-72
2023/05/22 09:15:07;;;;;;;9.63;4.60;;;;;;;;;;5011504;28;20041;-69
2023/05/22 09:17:32;;;;;;;6.00;4.47;;;;;;;;;;5032212;28;20041;-71
2023/05/22 09:19:59;;;;;;;4.93;4.53;;;;;;;;;;5014712;28;20055;-70
2023/05/22 09:22:34;;;;;;;10.90;4.80;;;;;;;;;;5019092;28;20053;-68
2023/05/22 09:25:00;;;;;;;6.50;4.47;;;;;;;;;;5015723;28;20046;-69
2023/05/22 09:27:26;;;;;;;4.82;4.32;;;;;;;;;;5018863;28;20052;-71
2023/05/22 09:29:55;;;;;;;4.97;4.47;;;;;;;;;;5022648;28;20514;-71
2023/05/22 09:32:21;;;;;;;4.80;4.30;;;;;;;;;;5022256;28;20163;-73
2023/05/22 09:34:47;;;;;;;5.82;4.75;;;;;;;;;;5022375;28;20454;-71
2023/05/22 09:37:13;;;;;;;7.70;4.72;;;;;;;;;;5020529;28;20037;-72
2023/05/22 09:39:41;;;;;;;7.70;4.70;;;;;;;;;;5022280;28;20053;-71
2023/05/22 09:42:09;;;;;;;8.48;4.43;;;;;;;;;;5022291;28;20064;-71
2023/05/22 09:44:34;;;;;;;6.32;4.63;;;;;;;;;;5018019;28;20045;-73
2023/05/22 09:47:00;;;;;;;5.35;4.47;;;;;;;;;;5020941;28;20079;-72
2023/05/22 09:49:26;;;;;;;9.10;4.68;;;;;;;;;;5021405;28;20045;-68
2023/05/22 09:51:53;;;;;;;6.03;4.38;;;;;;;;;;5021711;28;20057;-69
2023/05/22 09:54:20;;;;;;;6.75;4.40;;;;;;;;;;5021174;28;20518;-69
2023/05/22 09:56:49;;;;;;;9.60;4.60;;;;;;;;;;5020255;28;20079;-71
2023/05/22 09:59:21;;;;;;;6.35;4.30;;;;;;;;;;5016873;28;20072;-70
2023/05/22 10:01:49;;;;;;;10.48;5.03;;;;;;;;;;5021669;28;20128;-69
2023/05/22 10:04:17;;;;;;;7.97;4.45;;;;;;;;;;5016232;28;20054;-69
2023/05/22 10:06:49;;;;;;;6.55;4.90;;;;;;;;;;5019486;28;20053;-70
2023/05/22 10:09:16;;;;;;;5.88;4.68;;;;;;;;;;5013088;28;20402;-69
2023/05/22 10:11:42;;;;;;;9.20;4.88;;;;;;;;;;5019415;28;20064;-70
2023/05/22 10:14:08;;;;;;;5.28;4.30;;;;;;;;;;5021381;28;20057;-70
2023/05/22 10:16:36;;;;;;;9.48;4.72;;;;;;;;;;5021437;28;20046;-71
2023/05/22 10:19:02;;;;;;;4.95;4.30;;;;;;;;;;5021048;28;20075;-74
2023/05/22 10:21:28;;;;;;;7.07;4.63;;;;;;;;;;5035819;28;20955;-71
2023/05/22 10:23:55;;;;;;;5.18;4.68;;;;;;;;;;5021582;28;20045;-75
2023/05/22 10:26:21;;;;;;;5.15;4.65;;;;;;;;;;5021804;28;20053;-72
2023/05/22 10:28:56;;;;;;;5.80;4.72;;;;;;;;;;5021471;28;20050;-70
2023/05/22 10:31:41;;;;;;;5.05;4.55;;;;;;;;;;5020094;28;20083;-71
2023/05/22 10:34:31;;;;;;;7.00;4.60;;;;;;;;;;5011510;28;20144;-69
2023/05/22 10:37:21;;;;;;;4.97;3.97;;;;;;;;;;5014666;28;20913;-70
2023/05/22 10:40:08;;;;;;;5.30;4.65;;;;;;;;;;5029804;28;20048;-71
2023/05/22 10:42:36;;;;;;;5.03;4.15;;;;;;;;;;5019929;28;20045;-70
2023/05/22 10:45:03;;;;;;;6.72;4.60;;;;;;;;;;5020531;28;20059;-69
2023/05/22 10:47:32;;;;;;;6.25;4.60;;;;;;;;;;5019728;28;20466;-70
2023/05/22 10:50:07;;;;;;;8.80;4.90;;;;;;;;;;5021204;28;20053;-69
2023/05/22 10:52:34;;;;;;;8.07;5.22;;;;;;;;;;5019630;28;20517;-68
2023/05/22 10:55:00;;;;;;;6.65;4.90;;;;;;;;;;5017115;28;20076;-69
2023/05/22 10:57:32;;;;;;;7.90;4.68;;;;;;;;;;5016076;28;20518;-69
2023/05/22 11:00:08;;;;;;;7.70;4.88;;;;;;;;;;5012917;28;20499;-69
2023/05/22 11:02:41;;;;;;;8.65;5.03;;;;;;;;;;5017647;28;20064;-68
2023/05/22 11:05:20;;;;;;;5.13;4.63;;;;;;;;;;5010883;28;20049;-71
2023/05/22 11:07:46;;;;;;;7.50;4.53;;;;;;;;;;5017650;28;20053;-71
2023/05/22 11:10:11;;;;;;;6.05;4.72;;;;;;;;;;5015733;28;20053;-71
2023/05/22 11:12:37;;;;;;;5.70;4.75;;;;;;;;;;5020629;28;20045;-69
2023/05/22 11:15:06;;;;;;;8.65;4.45;;;;;;;;;;5034228;28;20049;-71
2023/05/22 11:17:35;;;;;;;6.60;4.72;;;;;;;;;;5019413;28;20166;-70
2023/05/22 11:20:18;;;;;;;5.50;4.35;;;;;;;;;;5018975;28;20088;-73
2023/05/22 11:22:59;;;;;;;10.30;4.50;;;;;;;;;;5019364;28;20052;-69
2023/05/22 11:25:26;;;;;;;9.68;4.88;;;;;;;;;;5012815;28;20532;-73
2023/05/22 11:27:52;;;;;;;11.52;5.10;;;;;;;;;;5015655;28;20054;-70
2023/05/22 11:30:19;;;;;;;5.70;4.70;;;;;;;;;;5012918;28;20195;-70
2023/05/22 11:32:46;;;;;;;6.40;4.70;;;;;;;;;;5013066;28;20069;-69
2023/05/22 11:35:21;;;;;;;7.45;4.47;;;;;;;;;;5019328;28;20058;-71
2023/05/22 11:37:48;;;;;;;4.85;4.45;;;;;;;;;;5009884;28;20057;-69
2023/05/22 11:40:15;;;;;;;7.00;4.78;;;;;;;;;;5012664;28;20060;-69
2023/05/22 11:42:41;;;;;;;6.28;5.05;;;;;;;;;;5010228;28;20060;-69
2023/05/22 11:45:07;;;;;;;6.28;4.57;;;;;;;;;;5017053;28;20053;-70
2023/05/22 11:47:33;;;;;;;10.05;5.18;;;;;;;;;;5018958;28;20053;-70
2023/05/22 11:49:59;;;;;;;6.10;5.18;;;;;;;;;;5014877;28;20053;-69
2023/05/22 11:52:29;;;;;;;8.40;5.28;;;;;;;;;;5010995;28;20050;-68
2023/05/22 11:54:54;;;;;;;8.98;4.70;;;;;;;;;;5013608;28;20053;-69
2023/05/22 11:57:21;;;;;;;6.47;4.53;;;;;;;;;;5012368;28;20044;-69
2023/05/22 11:59:47;;;;;;;5.72;4.97;;;;;;;;;;5007960;28;20068;-69
2023/05/22 12:02:13;;;;;;;6.40;5.25;;;;;;;;;;5013712;28;20406;-69
2023/05/22 12:04:39;;;;;;;7.03;6.30;;;;;;;;;;5010786;28;20116;-69
2023/05/22 12:07:04;;;;;;;12.38;5.97;;;;;;;;;;5009098;28;20422;-69
2023/05/22 12:09:30;;;;;;;7.68;6.50;;;;;;;;;;5009809;28;20419;-69
2023/05/22 12:11:59;;;;;;;9.65;7.07;;;;;;;;;;5030272;28;20141;-70
2023/05/22 12:14:28;;;;;;;9.60;6.32;;;;;;;;;;5016488;28;20046;-69
2023/05/22 12:16:57;;;;;;;16.67;6.70;;;;;;;;;;5016526;28;20045;-69
2023/05/22 12:19:24;;;;;;;7.47;6.10;;;;;;;;;;5011269;28;20042;-71
2023/05/22 12:21:50;;;;;;;12.23;6.22;;;;;;;;;;5015723;28;20070;-68
2023/05/22 12:24:21;;;;;;;11.77;6.20;;;;;;;;;;5016095;28;20073;-69
2023/05/22 12:26:54;;;;;;;12.27;6.13;;;;;;;;;;5017099;28;20417;-70
2023/05/22 12:29:23;;;;;;;9.90;6.22;;;;;;;;;;5016919;28;20081;-69
2023/05/22 12:31:49;;;;;;;10.40;6.72;;;;;;;;;;5019152;28;20045;-69
2023/05/22 12:34:17;;;;;;;10.07;5.75;;;;;;;;;;5012936;28;20049;-69
2023/05/22 12:36:44;;;;;;;9.13;6.03;;;;;;;;;;5018478;28;20079;-69
2023/05/22 12:39:15;;;;;;;7.57;6.70;;;;;;;;;;5012823;28;20096;-69
2023/05/22 12:41:40;;;;;;;11.45;6.80;;;;;;;;;;5012987;28;20490;-69
2023/05/22 12:44:06;;;;;;;10.00;6.97;;;;;;;;;;5017141;28;20059;-70
2023/05/22 12:46:32;;;;;;;7.97;5.63;;;;;;;;;;5018585;28;20068;-70
2023/05/22 12:48:59;;;;;;;6.97;6.22;;;;;;;;;;5015655;28;20115;-72
2023/05/22 12:51:25;;;;;;;6.88;6.05;;;;;;;;;;5014902;28;20076;-72
2023/05/22 12:53:51;;;;;;;10.40;6.63;;;;;;;;;;5016449;28;20053;-71
2023/05/22 12:56:17;;;;;;;10.52;6.10;;;;;;;;;;5015815;28;20046;-69
2023/05/22 12:58:43;;;;;;;7.53;6.50;;;;;;;;;;5014059;28;20052;-69
2023/05/22 13:01:08;;;;;;;9.02;6.40;;;;;;;;;;5016720;28;20056;-73
2023/05/22 13:03:34;;;;;;;6.97;6.28;;;;;;;;;;5018296;28;20042;-70
2023/05/22 13:05:59;;;;;;;7.63;6.18;;;;;;;;;;5018593;28;20041;-70
2023/05/22 13:08:25;;;;;;;6.28;5.68;;;;;;;;;;5017094;28;20049;-69
2023/05/22 13:10:50;;;;;;;10.18;5.47;;;;;;;;;;5013381;28;20088;-69
2023/05/22 13:13:16;;;;;;;8.95;6.20;;;;;;;;;;5010842;28;20042;-70
2023/05/22 13:15:41;;;;;;;8.10;6.35;;;;;;;;;;5015948;28;20427;-70
2023/05/22 13:18:06;;;;;;;7.30;6.28;;;;;;;;;;5018625;28;20422;-71
2023/05/22 13:20:34;;;;;;;10.35;7.10;;;;;;;;;;5015213;28;20061;-71
2023/05/22 13:23:00;;;;;;;14.00;6.47;;;;;;;;;;5016411;28;20052;-68
2023/05/22 13:25:25;;;;;;;10.57;6.50;;;;;;;;;;5020515;28;20041;-68
2023/05/22 13:27:51;;;;;;;9.50;6.65;;;;;;;;;;5009661;28;20514;-69
2023/05/22 13:30:16;;;;;;;7.53;6.18;;;;;;;;;;5018861;28;20049;-70
2023/05/22 13:32:42;;;;;;;11.02;7.18;;;;;;;;;;5015781;28;20076;-69
2023/05/22 13:35:08;;;;;;;9.80;6.45;;;;;;;;;;5010231;28;20080;-71
2023/05/22 13:37:33;;;;;;;14.32;6.03;;;;;;;;;;5013492;28;20045;-71
2023/05/22 13:39:59;;;;;;;6.93;5.53;;;;;;;;;;5013542;28;20053;-71
2023/05/22 13:42:24;;;;;;;8.18;5.38;;;;;;;;;;5017274;28;20049;-71
2023/05/22 13:44:50;;;;;;;9.68;5.72;;;;;;;;;;5035060;28;20064;-69
2023/05/22 13:47:15;;;;;;;10.68;5.53;;;;;;;;;;5015174;28;20037;-70
2023/05/22 13:49:41;;;;;;;11.88;6.25;;;;;;;;;;5011222;28;20819;-69
2023/05/22 13:52:06;;;;;;;8.68;5.70;;;;;;;;;;5016942;28;20114;-72
2023/05/22 13:54:32;;;;;;;7.43;5.85;;;;;;;;;;5011687;28;20050;-71
2023/05/22 13:57:01;;;;;;;7.32;6.13;;;;;;;;;;5010651;28;20522;-70
2023/05/22 13:59:27;;;;;;;7.80;5.68;;;;;;;;;;5011679;28;20108;-68
2023/05/22 14:01:53;;;;;;;8.98;6.07;;;;;;;;;;5013824;28;20119;-70
2023/05/22 14:04:18;;;;;;;9.25;6.07;;;;;;;;;;5013558;28;20439;-69
2023/05/22 14:06:44;;;;;;;11.65;6.30;;;;;;;;;;5014458;28;20053;-70
2023/05/22 14:09:09;;;;;;;8.00;5.47;;;;;;;;;;5015250;28;20065;-69
2023/05/22 14:11:35;;;;;;;7.50;5.00;;;;;;;;;;5016090;28;20172;-68
2023/05/22 14:14:00;;;;;;;9.98;6.20;;;;;;;;;;5014598;28;20092;-69
2023/05/22 14:16:26;;;;;;;8.63;6.18;;;;;;;;;;5007550;28;20065;-68
2023/05/22 14:18:51;;;;;;;7.43;6.00;;;;;;;;;;5006724;28;20077;-71
2023/05/22 14:21:17;;;;;;;6.25;5.65;;;;;;;;;;4999974;28;20100;-68
2023/05/22 14:23:43;;;;;;;8.38;5.70;;;;;;;;;;5013780;28;20042;-68
2023/05/22 14:26:09;;;;;;;6.28;4.88;;;;;;;;;;5015854;28;20057;-68
2023/05/22 14:28:35;;;;;;;8.50;6.20;;;;;;;;;;5020245;28;20045;-70
2023/05/22 14:31:00;;;;;;;8.77;5.18;;;;;;;;;;5014564;28;20522;-68
2023/05/22 14:33:26;;;;;;;7.28;5.22;;;;;;;;;;5008418;28;20203;-68
2023/05/22 14:35:51;;;;;;;5.80;5.05;;;;;;;;;;5014893;28;20084;-70